Time;durP1;ratioP1;P1;durP2;ratioP2;P2;SDS_P1;SDS_P2;PMS_P1;PMS_P2;Temp;Humidity;BMP_temperature;BMP_pressure;BME280_temperature;BME280_humidity;BME280_pressure;Samples;Min_cycle;Max_cycle;Signal;HPM_P1;HPM_P2
2024/02/13 00:01:18;;;;;;;11.38;5.43;;;2.70;99.90;;;-144.05;80.90;57054.88;5010722;28;20117;-80
2024/02/13 00:03:45;;;;;;;17.45;7.63;;;;;;;-144.05;81.07;57065.47;5027290;28;20117;-81
2024/02/13 00:06:11;;;;;;;19.33;6.55;;;;;;;-144.05;80.79;57040.00;5009914;28;20093;-81
2024/02/13 00:08:37;;;;;;;17.08;6.40;;;;;;;-144.05;81.29;57052.75;5011911;28;20022;-81
2024/02/13 00:11:06;;;;;;;13.02;5.90;;;1.30;99.90;;;-144.05;80.98;57040.00;5011735;28;20487;-83
2024/02/13 00:13:36;;;;;;;14.55;6.40;;;;;;;-144.05;81.22;57056.97;5011684;28;20092;-81
2024/02/13 00:16:03;;;;;;;17.65;7.30;;;6.50;99.90;;;-144.05;81.56;57054.88;5011459;28;20450;-83
2024/02/13 00:18:33;;;;;;;11.57;5.80;;;1.40;99.90;;;-144.05;81.56;57061.22;5011384;28;20037;-83
2024/02/13 00:20:59;;;;;;;20.10;6.65;;;1.60;99.90;;;-144.05;81.16;57086.72;5011387;28;20113;-81
2024/02/13 00:23:25;;;;;;;15.00;6.28;;;6.40;99.90;;;-144.05;82.26;57035.75;5011330;28;20376;-81
2024/02/13 00:25:52;;;;;;;11.00;5.88;;;;;;;-144.05;81.72;57035.75;5012013;28;20029;-80
2024/02/13 00:28:19;;;;;;;12.30;5.72;;;;;;;-144.05;82.23;57082.47;5015814;28;20038;-81
2024/02/13 00:30:46;;;;;;;13.52;6.07;;;;;;;-144.05;81.90;57065.47;5011554;28;20025;-81
2024/02/13 00:33:13;;;;;;;14.05;5.90;;;;;;;-144.05;81.97;57048.50;5010311;28;20056;-82
2024/02/13 00:35:40;;;;;;;15.75;6.82;;;4.90;99.90;;;-144.05;81.82;57069.72;5010193;28;20088;-80
2024/02/13 00:38:06;;;;;;;18.40;6.40;;;;;;;-144.05;82.24;57071.84;5010651;28;20088;-82
2024/02/13 00:40:32;;;;;;;14.95;6.30;;;;;;;-144.05;82.52;57093.09;5015964;28;20018;-83
2024/02/13 00:42:58;;;;;;;19.83;6.75;;;;;;;-144.05;82.46;57061.22;5010355;28;20030;-84
2024/02/13 00:45:24;;;;;;;19.13;6.50;;;1.20;99.90;;;-144.05;82.58;57042.13;5011130;28;20109;-83
2024/02/13 00:47:50;;;;;;;13.25;6.05;;;;;;;-144.05;82.31;57027.25;5010104;28;20121;-81
2024/02/13 00:50:16;;;;;;;19.65;7.18;;;0.80;99.90;;;-144.05;82.11;57052.75;5010333;28;20125;-81
2024/02/13 00:52:43;;;;;;;17.23;7.65;;;;;;;-144.05;82.68;57061.22;5010035;28;20061;-81
2024/02/13 00:55:09;;;;;;;19.67;7.72;;;4.30;99.90;;;-144.05;82.46;57027.25;5010123;28;20029;-80
2024/02/13 00:57:36;;;;;;;16.33;7.03;;;4.20;99.90;;;-144.05;82.76;57046.38;5009517;28;20064;-82
2024/02/13 01:00:10;;;;;;;22.88;8.57;;;1.80;99.90;;;-144.05;82.87;57065.47;5010545;28;20068;-80
2024/02/13 01:02:36;;;;;;;19.85;7.38;;;;;;;-144.05;82.69;57054.88;5011284;28;20037;-85
2024/02/13 01:05:03;;;;;;;17.58;8.48;;;0.90;99.90;;;-144.05;82.89;57069.72;5011606;28;20030;-83
2024/02/13 01:07:30;;;;;;;25.02;8.45;;;;;;;-144.05;83.74;57069.72;5011874;28;20125;-85
2024/02/13 01:09:57;;;;;;;22.08;9.10;;;;;;;-144.05;84.02;57063.34;5012317;28;20116;-82
2024/02/13 01:12:23;;;;;;;18.60;9.65;;;1.20;99.90;;;-144.05;84.37;57052.75;5012757;28;20379;-84
2024/02/13 01:14:49;;;;;;;16.02;8.30;;;;;;;-144.05;84.34;57090.97;5011388;28;20034;-82
2024/02/13 01:17:15;;;;;;;21.55;8.80;;;;;;;-144.05;84.68;57016.63;5010389;28;20537;-79
2024/02/13 01:19:44;;;;;;;19.92;8.32;;;;;;;-144.05;84.65;57061.22;5011461;28;20076;-83
2024/02/13 01:22:11;;;;;;;21.27;9.02;;;;;;;-144.05;84.76;57040.00;5016489;28;20030;-83
2024/02/13 01:24:37;;;;;;;18.63;8.45;;;;;;;-144.05;84.36;57056.97;5011946;28;20025;-82
2024/02/13 01:27:04;;;;;;;19.95;8.60;;;;;;;-144.05;84.35;57065.47;5010728;28;20442;-82
2024/02/13 01:29:31;;;;;;;18.98;8.55;;;;;;;-144.05;84.44;57048.50;5011794;28;20026;-81
2024/02/13 01:31:57;;;;;;;21.88;8.52;;;;;;;-144.05;84.57;57056.97;5010569;28;20028;-80
2024/02/13 01:34:23;;;;;;;17.80;8.32;;;;;;;-144.05;84.14;57046.38;5012334;28;20041;-84
2024/02/13 01:36:50;;;;;;;26.67;8.75;;;;;;;-144.05;83.54;57054.88;5010621;28;20384;-80
2024/02/13 01:39:16;;;;;;;19.05;9.23;;;1.60;99.90;;;-144.05;83.89;57103.72;5010495;28;20084;-81
2024/02/13 01:41:42;;;;;;;20.88;8.40;;;1.50;99.90;;;-144.05;83.66;57029.38;5012316;28;20029;-81
2024/02/13 01:44:08;;;;;;;17.02;8.45;;;6.10;99.90;;;-144.05;83.27;57001.75;5012300;28;20088;-85
2024/02/13 01:46:35;;;;;;;18.88;9.07;;;;;;;-144.05;83.64;57065.47;5010446;28;20025;-83
2024/02/13 01:49:03;;;;;;;23.42;10.60;;;2.10;99.90;;;-144.05;83.51;57029.38;5012353;28;20657;-83
2024/02/13 01:51:35;;;;;;;19.65;9.48;;;1.80;99.90;;;-144.05;83.35;57018.75;5010771;28;20385;-80
2024/02/13 01:54:09;;;;;;;27.92;9.98;;;5.20;99.90;;;-144.05;83.26;57056.97;5027003;28;20438;-83
2024/02/13 01:56:38;;;;;;;25.30;9.43;;;;;;;-144.05;83.43;57059.09;5011979;28;20033;-83
2024/02/13 01:59:05;;;;;;;26.88;10.57;;;5.00;99.90;;;-144.05;83.34;57054.88;5014642;28;20030;-82
2024/02/13 02:01:32;;;;;;;22.52;10.90;;;;;;;-144.05;83.14;57059.09;5014907;28;20025;-83
2024/02/13 02:04:03;;;;;;;26.52;11.45;;;4.70;99.90;;;-144.05;83.96;57056.97;5015022;28;20459;-79
2024/02/13 02:06:29;;;;;;;24.77;10.27;;;;;;;-144.05;83.78;57023.00;5014061;28;20060;-81
2024/02/13 02:08:56;;;;;;;27.85;10.45;;;;;;;-144.05;84.15;57076.09;5029416;28;20033;-80
2024/02/13 02:11:25;;;;;;;28.52;12.18;;;;;;;-144.05;83.97;57076.09;5029109;28;20040;-81
2024/02/13 02:13:52;;;;;;;21.27;11.15;;;;;;;-144.05;83.63;57076.09;5012921;28;20025;-81
2024/02/13 02:16:18;;;;;;;25.65;12.15;;;;;;;-144.05;84.73;57059.09;5013652;28;20037;-80
2024/02/13 02:18:45;;;;;;;26.05;11.57;;;;;;;-144.05;84.14;57042.13;5012799;28;20121;-81
2024/02/13 02:21:11;;;;;;;22.35;11.95;;;;;;;-144.05;85.04;57067.59;5014113;28;20022;-81
2024/02/13 02:23:37;;;;;;;23.75;11.27;;;;;;;-144.05;84.63;57086.72;5013761;28;20048;-81
2024/02/13 02:26:06;;;;;;;23.15;11.18;;;;;;;-144.05;85.29;57084.59;5013477;28;20125;-81
2024/02/13 02:28:34;;;;;;;28.98;12.55;;;;;;;-144.05;85.24;57050.63;5012442;28;20034;-80
2024/02/13 02:31:00;;;;;;;28.63;12.13;;;;;;;-144.05;84.37;57082.47;5028757;28;20557;-80
2024/02/13 02:33:26;;;;;;;25.33;12.07;;;;;;;-144.05;84.69;57107.97;5013856;28;20038;-77
2024/02/13 02:35:53;;;;;;;24.13;12.23;;;;;;;-144.05;85.05;57063.34;5028945;28;20096;-80
2024/02/13 02:38:20;;;;;;;30.67;12.02;;;;;;;-144.05;84.63;57044.25;5029714;28;20057;-80
2024/02/13 02:40:47;;;;;;;25.20;11.60;;;0.80;99.90;;;-144.05;84.86;57048.50;5012631;28;20043;-82
2024/02/13 02:43:14;;;;;;;27.50;12.55;;;0.90;99.90;;;-144.05;85.18;57033.63;5012569;28;20041;-82
2024/02/13 02:45:40;;;;;;;30.95;12.98;;;0.20;99.90;;;-144.05;85.97;57073.97;5008121;28;20072;-81
2024/02/13 02:48:07;;;;;;;28.70;13.30;;;0.90;99.90;;;-144.05;85.77;57093.09;5013299;28;20364;-82
2024/02/13 02:50:34;;;;;;;28.73;12.77;;;;;;;-144.05;85.57;57054.88;5012603;28;20026;-83
2024/02/13 02:53:00;;;;;;;26.40;12.93;;;0.10;99.90;;;-144.05;85.47;57067.59;5028979;28;20054;-82
2024/02/13 02:55:29;;;;;;;36.95;13.98;;;0.10;99.90;;;-144.05;85.94;57090.97;5012007;28;20479;-81
2024/02/13 02:57:56;;;;;;;28.85;13.88;;;;;;;-144.05;86.13;57084.59;5012435;28;20034;-83
2024/02/13 03:00:23;;;;;;;29.58;13.45;;;;;;;-144.05;86.08;57090.97;5013558;28;20033;-81
2024/02/13 03:02:49;;;;;;;32.38;13.93;;;;;;;-144.05;86.19;57084.59;5011994;28;20483;-80
2024/02/13 03:05:18;;;;;;;26.10;13.75;;;;;;;-144.05;86.37;57056.97;5013014;28;20184;-75
2024/02/13 03:07:45;;;;;;;36.72;14.80;;;0.70;99.90;;;-144.05;86.40;57063.34;5011179;28;20033;-80
2024/02/13 03:10:12;;;;;;;30.73;15.02;;;;;;;-144.05;86.52;57065.47;5027941;28;20534;-81
2024/02/13 03:12:38;;;;;;;34.20;15.63;;;0.40;99.90;;;-144.05;86.15;57056.97;5011797;28;20061;-81
2024/02/13 03:15:05;;;;;;;30.55;14.85;;;;;;;-144.05;86.36;57090.97;5028250;28;20045;-80
2024/02/13 03:17:32;;;;;;;39.08;16.58;;;;;;;-144.05;85.91;57061.22;5012701;28;20102;-80
2024/02/13 03:20:00;;;;;;;28.55;15.07;;;;;;;-144.05;86.20;57076.09;5013086;28;20030;-80
2024/02/13 03:22:27;;;;;;;31.63;16.23;;;;;;;-144.05;86.32;57071.84;5011290;28;20057;-80
2024/02/13 03:24:54;;;;;;;31.88;16.48;;;;;;;-144.05;86.31;57093.09;5014519;28;20057;-82
2024/02/13 03:27:20;;;;;;;33.33;16.52;;;;;;;-144.05;86.33;57061.22;5023035;28;20026;-82
2024/02/13 03:29:46;;;;;;;35.42;16.52;;;;;;;-144.05;86.37;57048.50;5023276;28;20026;-80
2024/02/13 03:32:12;;;;;;;31.17;15.85;;;;;;;-144.05;85.76;57080.34;5023386;28;20517;-81
2024/02/13 03:34:38;;;;;;;36.17;17.23;;;;;;;-144.05;85.59;57020.88;5023024;28;20030;-83
2024/02/13 03:37:05;;;;;;;32.17;17.33;;;;;;;-144.05;85.85;57061.22;5021271;28;20058;-83
2024/02/13 03:39:31;;;;;;;35.90;17.40;;;;;;;-144.05;85.96;57040.00;5012899;28;20084;-82
2024/02/13 03:41:57;;;;;;;31.63;16.98;;;;;;;-144.05;85.77;57059.09;5011560;28;20114;-81
2024/02/13 03:44:25;;;;;;;35.40;17.95;;;;;;;-144.05;85.74;57078.22;5011025;28;20038;-82
2024/02/13 03:46:52;;;;;;;33.92;18.42;;;;;;;-144.05;85.94;57071.84;5011059;28;20032;-82
2024/02/13 03:49:19;;;;;;;31.85;17.25;;;;;;;-144.05;85.44;57056.97;5012325;28;20142;-81
2024/02/13 03:51:45;;;;;;;30.55;16.75;;;;;;;-144.05;85.77;57056.97;5011410;28;20488;-81
2024/02/13 03:54:11;;;;;;;32.88;16.25;;;;;;;-144.05;85.69;57040.00;5012537;28;20040;-81
2024/02/13 03:56:40;;;;;;;31.60;16.08;;;;;;;-144.05;85.13;57059.09;5012545;28;20092;-82
2024/02/13 03:59:10;;;;;;;31.30;16.52;;;;;;;-144.05;85.01;57067.59;5012707;28;20380;-81
2024/02/13 04:01:37;;;;;;;30.55;16.20;;;;;;;-144.05;85.41;57078.22;5010823;28;20024;-81
2024/02/13 04:04:04;;;;;;;30.55;15.15;;;;;;;-144.05;85.15;57069.72;5011156;28;20558;-81
2024/02/13 04:06:34;;;;;;;36.70;16.35;;;4.10;99.90;;;-144.05;85.34;57071.84;5026907;28;20065;-81
2024/02/13 04:09:06;;;;;;;27.92;15.20;;;4.10;99.90;;;-144.05;85.30;57040.00;5012534;28;20045;-81
2024/02/13 04:11:33;;;;;;;32.63;16.83;;;;;;;-144.05;85.70;57067.59;5012142;28;20022;-82
2024/02/13 04:14:00;;;;;;;35.05;15.82;;;;;;;-144.05;85.09;57093.09;5027639;28;20100;-81
2024/02/13 04:16:26;;;;;;;28.85;16.15;;;;;;;-144.05;84.99;57056.97;5012286;28;20083;-81
2024/02/13 04:18:53;;;;;;;33.47;16.63;;;;;;;-144.05;85.15;57063.34;5013178;28;20033;-82
2024/02/13 04:21:19;;;;;;;28.30;15.07;;;3.90;99.90;;;-144.05;85.42;57059.09;5013106;28;20480;-82
2024/02/13 04:23:48;;;;;;;26.67;14.55;;;4.30;99.90;;;-144.05;85.01;57052.75;5018590;28;20034;-81
2024/02/13 04:26:15;;;;;;;25.25;13.82;;;;;;;-144.05;84.55;57073.97;5009264;28;20026;-81
2024/02/13 04:28:43;;;;;;;31.17;15.93;;;;;;;-144.05;84.96;57078.22;5007116;28;20037;-82
2024/02/13 04:31:10;;;;;;;33.92;15.55;;;;;;;-144.05;84.71;57090.97;5012927;28;20136;-82
2024/02/13 04:33:36;;;;;;;30.30;15.52;;;1.00;99.90;;;-144.05;84.59;57069.72;5013425;28;20073;-82
2024/02/13 04:36:06;;;;;;;28.17;15.63;;;;;;;-144.05;84.68;57078.22;5013864;28;20476;-82
2024/02/13 04:38:32;;;;;;;27.58;15.93;;;1.20;99.90;;;-144.05;84.66;57090.97;5012808;28;20513;-83
2024/02/13 04:40:59;;;;;;;29.92;16.02;;;;;;;-144.05;84.96;57063.34;5014087;28;20033;-82
2024/02/13 04:43:25;;;;;;;30.63;17.42;;;4.40;99.90;;;-144.05;84.96;57069.72;5011982;28;20026;-82
2024/02/13 04:45:52;;;;;;;38.95;19.25;;;;;;;-144.05;85.46;57044.25;5011868;28;20041;-81
2024/02/13 04:48:18;;;;;;;39.33;19.25;;;;;;;-144.05;85.11;57076.09;5013640;28;20095;-79
2024/02/13 04:50:45;;;;;;;37.63;18.90;;;;;;;-144.05;84.87;57078.22;5013708;28;20030;-79
2024/02/13 04:53:15;;;;;;;39.13;18.88;;;;;;;-144.05;84.91;57067.59;5014558;28;20026;-81
2024/02/13 04:55:41;;;;;;;35.35;19.10;;;;;;;-144.05;85.39;57044.25;5006610;28;20026;-82
2024/02/13 04:58:08;;;;;;;38.35;19.77;;;;;;;-144.05;85.35;57067.59;5015795;28;20053;-79
2024/02/13 05:00:39;;;;;;;39.25;19.92;;;4.30;99.90;;;-144.05;86.17;57069.72;5011892;28;20430;-79
2024/02/13 05:03:24;;;;;;;38.42;18.63;;;;;;;-144.05;85.68;57084.59;5013336;28;20076;-79
2024/02/13 05:08:36;;;;;;;34.58;20.17;;;;;;;-144.05;85.36;57088.84;5013105;28;20076;-81
2024/02/13 05:11:03;;;;;;;43.92;21.15;;;;;;;-144.05;86.62;57093.09;5013289;28;20041;-82
2024/02/13 05:13:32;;;;;;;43.45;20.35;;;;;;;-144.05;86.04;57073.97;5013205;28;20068;-81
2024/02/13 05:16:00;;;;;;;46.03;22.20;;;;;;;-144.05;86.24;57067.59;5013078;28;20038;-82
2024/02/13 05:18:26;;;;;;;43.35;22.33;;;;;;;-144.05;87.15;57078.22;5012747;28;20057;-81
2024/02/13 05:20:53;;;;;;;38.60;22.05;;;;;;;-144.05;86.88;57063.34;5013553;28;20030;-80
2024/02/13 05:23:20;;;;;;;38.67;21.73;;;;;;;-144.05;87.00;57052.75;5013029;28;20418;-79
2024/02/13 05:25:48;;;;;;;51.75;25.38;;;;;;;-144.05;86.60;57088.84;5015810;28;20384;-81
2024/02/13 05:28:15;;;;;;;41.28;22.60;;;;;;;-144.05;87.00;57065.47;5012863;28;20387;-81
2024/02/13 05:30:42;;;;;;;50.42;25.10;;;;;;;-144.05;87.03;57056.97;5007188;28;20093;-82
2024/02/13 05:33:09;;;;;;;46.47;24.33;;;;;;;-144.05;87.13;57063.34;5018282;28;20037;-83
2024/02/13 05:35:38;;;;;;;48.65;23.85;;;;;;;-144.05;86.94;57056.97;5016580;28;20029;-83
2024/02/13 05:38:05;;;;;;;48.40;23.38;;;;;;;-144.05;87.35;57067.59;5018006;28;20037;-83
2024/02/13 05:40:31;;;;;;;45.35;24.10;;;;;;;-144.05;86.62;57073.97;5018385;28;20544;-79
2024/02/13 05:42:57;;;;;;;44.42;24.20;;;;;;;-144.05;86.87;57059.09;5023359;28;20084;-79
2024/02/13 05:45:23;;;;;;;47.50;24.50;;;;;;;-144.05;86.75;57088.84;5026623;28;20034;-82
2024/02/13 05:47:49;;;;;;;50.60;24.27;;;;;;;-144.05;87.11;57078.22;5026932;28;20040;-81
2024/02/13 05:50:18;;;;;;;51.05;25.00;;;;;;;-144.05;87.32;57090.97;5033429;28;20022;-77
2024/02/13 05:52:47;;;;;;;48.42;24.38;;;;;;;-144.05;87.12;57093.09;5036829;28;20047;-75
2024/02/13 05:55:14;;;;;;;47.80;24.48;;;;;;;-144.05;87.58;57054.88;5027453;28;20061;-83
2024/02/13 05:57:41;;;;;;;52.95;23.67;;;;;;;-144.05;87.60;57046.38;5021134;28;20583;-81
2024/02/13 06:00:14;;;;;;;53.65;26.92;;;4.20;99.90;;;-144.05;87.61;57067.59;5020178;28;20044;-81
2024/02/13 06:02:41;;;;;;;42.42;24.73;;;;;;;-144.05;87.35;57067.59;5017809;28;20021;-82
2024/02/13 06:05:09;;;;;;;51.80;24.02;;;;;;;-144.05;87.13;57086.72;5017443;28;20041;-80
2024/02/13 06:07:36;;;;;;;46.20;22.95;;;;;;;-144.05;87.17;57099.47;5024652;28;20045;-81
2024/02/13 06:10:03;;;;;;;48.05;24.48;;;;;;;-144.05;87.26;57035.75;5033498;28;20030;-79
2024/02/13 06:12:29;;;;;;;47.10;24.00;;;;;;;-144.05;87.38;57073.97;5015899;28;20034;-79
2024/02/13 06:14:55;;;;;;;45.10;23.05;;;;;;;-144.05;87.25;57071.84;5016871;28;20064;-79
2024/02/13 06:17:24;;;;;;;47.88;23.40;;;;;;;-144.05;87.31;57067.59;5015281;28;20510;-79
2024/02/13 06:19:50;;;;;;;46.60;21.88;;;;;;;-144.05;87.40;57067.59;5015424;28;20034;-81
2024/02/13 06:22:17;;;;;;;45.20;22.00;;;;;;;-144.05;87.16;57088.84;5016513;28;20030;-80
2024/02/13 06:24:43;;;;;;;47.25;22.50;;;;;;;-144.05;87.47;57073.97;5019244;28;20029;-80
2024/02/13 06:27:10;;;;;;;42.63;22.50;;;;;;;-144.05;88.00;57061.22;5014959;28;20026;-79
2024/02/13 06:29:36;;;;;;;42.05;20.63;;;;;;;-144.05;87.84;57076.09;5015917;28;20041;-79
2024/02/13 06:32:03;;;;;;;39.60;19.65;;;;;;;-144.05;87.57;57063.34;5014883;28;20538;-81
2024/02/13 06:34:29;;;;;;;34.38;18.27;;;;;;;-144.05;87.38;57095.22;5015870;28;20061;-82
2024/02/13 06:36:55;;;;;;;41.80;18.25;;;;;;;-144.05;87.35;57071.84;5016070;28;20048;-82
2024/02/13 06:39:23;;;;;;;26.95;15.48;;;;;;;-144.05;87.56;57067.59;5014367;28;20097;-81
2024/02/13 06:41:49;;;;;;;31.33;16.10;;;;;;;-144.05;86.77;57054.88;5014424;28;20022;-82
2024/02/13 06:44:15;;;;;;;28.02;14.10;;;4.10;99.90;;;-144.05;86.55;57061.22;5014252;28;20116;-78
2024/02/13 06:46:42;;;;;;;26.98;14.88;;;;;;;-144.05;86.29;57065.47;5008476;28;20026;-80
2024/02/13 06:49:08;;;;;;;28.70;14.00;;;;;;;-144.05;86.73;57078.22;5015898;28;20029;-78
2024/02/13 06:51:34;;;;;;;32.00;12.73;;;;;;;-144.05;86.32;57065.47;5014303;28;20022;-79
2024/02/13 06:54:01;;;;;;;23.70;12.73;;;;;;;-144.05;85.98;57082.47;5016255;28;20034;-79
2024/02/13 06:56:27;;;;;;;23.25;12.07;;;1.10;99.90;;;-144.05;85.67;57050.63;5031012;28;20026;-81
2024/02/13 06:58:54;;;;;;;24.30;12.15;;;;;;;-144.05;85.63;57080.34;5015687;28;20079;-79
2024/02/13 07:01:23;;;;;;;20.90;11.60;;;4.20;99.90;;;-144.05;85.57;57093.09;5016129;28;20434;-80
2024/02/13 07:03:49;;;;;;;23.88;11.95;;;0.80;99.90;;;-144.05;85.33;57054.88;5014879;28;20021;-81
2024/02/13 07:06:18;;;;;;;22.92;11.63;;;;;;;-144.05;85.74;57071.84;5013349;28;20454;-80
2024/02/13 07:08:44;;;;;;;26.90;11.18;;;;;;;-144.05;85.46;57065.47;5022729;28;20053;-80
2024/02/13 07:11:11;;;;;;;20.70;10.57;;;;;;;-144.05;85.25;57071.84;5013523;28;20045;-82
2024/02/13 07:13:37;;;;;;;20.25;10.18;;;;;;;-144.05;85.67;57035.75;5015765;28;20044;-81
2024/02/13 07:16:06;;;;;;;21.85;10.27;;;1.30;99.90;;;-144.05;84.83;57071.84;5014674;28;20026;-82
2024/02/13 07:18:33;;;;;;;20.83;9.45;;;1.10;99.90;;;-144.05;85.01;57048.50;5015012;28;20037;-83
2024/02/13 07:21:00;;;;;;;22.95;10.10;;;;;;;-144.05;85.25;57063.34;5031916;28;20189;-83
2024/02/13 07:23:27;;;;;;;15.35;8.65;;;;;;;-144.05;84.64;57059.09;5032959;28;20026;-82
2024/02/13 07:25:53;;;;;;;17.88;8.90;;;;;;;-144.05;83.83;57059.09;5021384;28;20029;-84
2024/02/13 07:28:19;;;;;;;18.88;9.48;;;1.10;99.90;;;-144.05;83.71;57044.25;5015451;28;20026;-82
2024/02/13 07:30:46;;;;;;;16.52;8.70;;;;;;;-144.05;82.99;57056.97;5032073;28;20029;-79
2024/02/13 07:33:13;;;;;;;15.98;8.45;;;;;;;-144.05;82.96;57044.25;5016750;28;20400;-80
2024/02/13 07:35:38;;;;;;;13.88;8.13;;;1.20;99.90;;;-144.05;83.09;57050.63;5014954;28;20025;-79
2024/02/13 07:38:05;;;;;;;17.08;7.40;;;;;;;-144.05;82.78;57029.38;5016723;28;20180;-79
2024/02/13 07:40:31;;;;;;;16.83;8.07;;;4.20;99.90;;;-144.05;82.82;57018.75;5017029;28;20033;-79
2024/02/13 07:42:57;;;;;;;12.88;6.97;;;;;;;-144.05;82.76;57080.34;5031669;28;20121;-83
2024/02/13 07:45:24;;;;;;;17.52;7.32;;;;;;;-144.05;82.44;57080.34;5014352;28;20479;-79
2024/02/13 07:47:52;;;;;;;12.80;6.53;;;;;;;-144.05;82.69;57078.22;5015159;28;20049;-80
2024/02/13 07:50:19;;;;;;;14.13;7.25;;;;;;;-144.05;82.16;57059.09;5013466;28;20060;-80
2024/02/13 07:52:45;;;;;;;12.55;7.32;;;1.50;99.90;;;-144.05;81.16;57048.50;5015964;28;20487;-80
2024/02/13 07:55:12;;;;;;;16.33;7.30;;;;;;;-144.05;81.24;57052.75;5013497;28;20048;-81
2024/02/13 07:57:38;;;;;;;16.15;7.53;;;;;;;-144.05;80.83;57027.25;5015690;28;20022;-81
2024/02/13 08:00:06;;;;;;;13.23;6.35;;;;;;;-144.05;80.67;57050.63;5015287;28;20105;-82
2024/02/13 08:02:32;;;;;;;17.30;6.57;;;7.40;99.90;;;-144.05;80.88;57048.50;5013408;28;20030;-82
2024/02/13 08:04:59;;;;;;;12.98;5.57;;;;;;;-144.05;81.42;57048.50;5029438;28;20026;-83
2024/02/13 08:07:27;;;;;;;12.43;5.60;;;;;;;-144.05;81.15;57035.75;5014446;28;20041;-80
2024/02/13 08:09:54;;;;;;;10.85;4.93;;;;;;;-144.05;81.01;57042.13;5013517;28;20399;-78
2024/02/13 08:12:20;;;;;;;16.85;6.18;;;;;;;-144.05;80.96;57073.97;5014400;28;20125;-80
2024/02/13 08:14:47;;;;;;;12.40;5.60;;;;;;;-144.05;81.03;57048.50;5014806;28;20546;-81
2024/02/13 08:17:13;;;;;;;11.82;5.55;;;;;;;-144.05;81.05;57052.75;5014595;28;20045;-80
2024/02/13 08:19:40;;;;;;;11.48;5.47;;;;;;;-144.05;81.19;57073.97;5014735;28;20034;-82
2024/02/13 08:22:07;;;;;;;14.82;6.10;;;;;;;-144.05;81.07;57073.97;5015958;28;20029;-79
2024/02/13 08:24:35;;;;;;;13.43;4.95;;;6.20;99.90;;;-144.05;81.17;57031.50;5019016;28;20041;-81
2024/02/13 08:27:01;;;;;;;14.27;4.80;;;2.00;99.90;;;-144.05;80.34;57048.50;5014003;28;20033;-83
2024/02/13 08:29:27;;;;;;;12.32;4.78;;;6.20;99.90;;;-144.05;80.44;57061.22;5015784;28;20547;-83
2024/02/13 08:31:54;;;;;;;10.27;5.05;;;6.60;99.90;;;-144.05;80.40;57035.75;5015441;28;20054;-82
2024/02/13 08:34:22;;;;;;;10.77;4.88;;;1.90;99.90;;;-144.05;80.33;57031.50;5013508;28;20036;-80
2024/02/13 08:36:49;;;;;;;15.75;5.20;;;;;;;-144.05;80.07;57052.75;5014485;28;20569;-83
2024/02/13 08:39:15;;;;;;;13.93;5.25;;;6.00;99.90;;;-144.05;79.91;57061.22;5014843;28;20482;-83
2024/02/13 08:41:41;;;;;;;13.50;4.80;;;6.90;99.90;;;-144.05;79.27;57031.50;5015263;28;20502;-80
2024/02/13 08:44:09;;;;;;;9.70;4.38;;;7.00;99.90;;;-144.05;77.43;57001.75;5014429;28;20026;-79
2024/02/13 08:46:35;;;;;;;10.45;4.63;;;7.20;99.90;;;-144.05;76.17;57016.63;5013757;28;20026;-83
2024/02/13 08:49:01;;;;;;;11.77;5.47;;;;;;;-144.05;75.92;57006.00;5013166;28;20037;-81
2024/02/13 08:51:28;;;;;;;10.60;4.82;;;7.10;99.90;;;-144.05;74.82;57042.13;5024393;28;20442;-81
2024/02/13 08:53:56;;;;;;;10.88;4.82;;;6.90;99.90;;;-144.05;75.43;57035.75;5014801;28;20022;-82
2024/02/13 08:56:22;;;;;;;12.48;4.00;;;7.30;99.90;;;-144.05;74.69;57033.63;5012957;28;20026;-80
2024/02/13 08:58:52;;;;;;;12.30;4.30;;;7.20;99.90;;;-144.05;75.14;57008.13;5014551;28;20022;-81
2024/02/13 09:01:20;;;;;;;8.75;3.20;;;6.80;99.90;;;-144.05;73.81;57040.00;5013457;28;20088;-83
2024/02/13 09:03:48;;;;;;;12.00;3.70;;;;;;;-144.05;74.75;57048.50;5028436;28;20026;-82
2024/02/13 09:06:16;;;;;;;9.48;3.10;;;6.60;99.90;;;-144.05;75.28;57052.75;5014862;28;20057;-82
2024/02/13 09:08:43;;;;;;;9.88;3.65;;;;;;;-144.05;75.79;57029.38;5017518;28;20040;-83
2024/02/13 09:11:14;;;;;;;12.93;4.03;;;6.40;99.90;;;-144.05;76.61;56997.50;5017016;28;20040;-82
2024/02/13 09:13:41;;;;;;;7.80;3.35;;;6.80;99.90;;;-144.05;75.75;57044.25;5016996;28;20033;-82
2024/02/13 09:16:09;;;;;;;13.73;3.30;;;6.50;99.90;;;-144.05;75.13;57031.50;5018047;28;20069;-79
2024/02/13 09:18:37;;;;;;;9.23;3.05;;;;;;;-144.05;74.63;57044.25;5016499;28;20034;-81
2024/02/13 09:21:06;;;;;;;11.35;3.13;;;6.70;99.90;;;-144.05;74.68;57027.25;5016745;28;20026;-83
2024/02/13 09:23:34;;;;;;;8.10;2.60;;;3.70;99.90;;;-144.05;74.76;57035.75;5018305;28;20026;-82
2024/02/13 09:26:00;;;;;;;6.75;2.88;;;4.20;99.90;;;-144.05;74.72;57046.38;5019451;28;20171;-81
2024/02/13 09:28:27;;;;;;;8.55;3.00;;;;;;;-144.05;74.39;57050.63;5016161;28;20527;-84
2024/02/13 09:30:52;;;;;;;8.07;2.70;;;6.10;99.90;;;-144.05;74.27;57016.63;5017373;28;20029;-81
2024/02/13 09:33:22;;;;;;;4.90;3.22;;;3.60;99.90;;;-144.05;74.07;57048.50;5018205;28;20033;-83
2024/02/13 09:35:53;;;;;;;8.35;2.42;;;;;;;-144.05;73.97;57035.75;5025650;28;20033;-79
2024/02/13 09:38:19;;;;;;;6.05;2.05;;;6.80;99.90;;;-144.05;74.21;57048.50;5017163;28;20069;-79
2024/02/13 09:40:48;;;;;;;4.88;1.95;;;;;;;-144.05;74.26;57020.88;5011603;28;20423;-83
2024/02/13 09:43:15;;;;;;;8.63;3.33;;;;;;;-144.05;74.27;57035.75;5017793;28;20060;-79
2024/02/13 09:45:43;;;;;;;6.18;2.55;;;;;;;-144.05;74.67;57046.38;5018194;28;20042;-79
2024/02/13 09:48:21;;;;;;;7.68;2.17;;;6.60;99.90;;;-144.05;74.34;57059.09;5019214;28;20060;-82
2024/02/13 09:50:50;;;;;;;6.40;2.92;;;6.60;99.90;;;-144.05;73.87;57012.38;5018589;28;20076;-79
2024/02/13 09:53:29;;;;;;;4.43;1.95;;;6.70;99.90;;;-144.05;73.85;57035.75;5018716;28;20049;-80
2024/02/13 09:55:58;;;;;;;5.40;2.13;;;6.70;99.90;;;-144.05;73.26;57010.25;5018804;28;20084;-81
2024/02/13 09:58:27;;;;;;;6.72;1.80;;;6.80;99.90;;;-144.05;72.50;57016.63;5017591;28;20092;-81
2024/02/13 10:00:53;;;;;;;4.78;2.03;;;4.30;99.90;;;-144.05;72.70;57020.88;5017547;28;20083;-79
2024/02/13 10:03:20;;;;;;;7.18;2.38;;;;;;;-144.05;72.64;57014.50;5017573;28;20037;-82
2024/02/13 10:05:45;;;;;;;7.00;2.35;;;6.30;99.90;;;-144.05;71.92;57054.88;5020245;28;20026;-83
2024/02/13 10:08:13;;;;;;;8.02;2.00;;;8.00;99.90;;;-144.05;71.13;57048.50;5020199;28;20565;-83
2024/02/13 10:10:39;;;;;;;6.35;2.20;;;6.90;99.90;;;-144.05;70.76;57031.50;5018980;28;20033;-81
2024/02/13 10:13:06;;;;;;;7.88;1.70;;;6.20;99.90;;;-144.05;70.75;57008.13;5018520;28;20079;-81
2024/02/13 10:15:42;;;;;;;5.20;1.83;;;6.50;99.90;;;-144.05;71.61;57025.13;5018308;28;20458;-81
2024/02/13 10:18:13;;;;;;;;;;;7.30;99.90;;;-144.05;69.79;57042.13;5019767;28;20141;-79
2024/02/13 10:20:46;;;;;;;6.65;1.75;;;7.70;99.90;;;-144.05;69.21;57052.75;5018139;28;20285;-81
2024/02/13 10:23:14;;;;;;;7.10;1.77;;;6.70;99.90;;;-144.05;68.69;57027.25;5020141;28;20041;-82
2024/02/13 10:25:43;;;;;;;5.47;1.83;;;6.80;99.90;;;-144.05;69.03;56999.63;5023526;28;20018;-80
2024/02/13 10:28:12;;;;;;;9.65;1.73;;;6.60;99.90;;;-144.05;68.69;57012.38;5019883;28;20022;-81
2024/02/13 10:30:39;;;;;;;5.07;1.50;;;7.40;99.90;;;-144.05;69.00;57063.34;5019571;28;20372;-84
2024/02/13 10:33:06;;;;;;;3.00;1.73;;;6.50;99.90;;;-144.05;67.73;57012.38;5019635;28;20053;-79
2024/02/13 10:35:33;;;;;;;5.10;1.70;;;7.90;99.90;;;-144.05;67.71;57031.50;5018936;28;20026;-80
2024/02/13 10:38:03;;;;;;;5.38;1.50;;;7.70;99.90;;;-144.05;68.03;57018.75;5017620;28;20068;-82
2024/02/13 10:40:29;;;;;;;7.95;1.38;;;;;;;-144.05;66.61;57044.25;5017474;28;20407;-79
2024/02/13 10:42:58;;;;;;;6.78;1.85;;;7.60;99.90;;;-144.05;66.31;57031.50;5019997;28;20033;-82
2024/02/13 10:45:30;;;;;;;5.00;1.70;;;6.50;99.90;;;-144.05;66.19;57006.00;5019311;28;20061;-80